Time;durP1;ratioP1;P1;durP2;ratioP2;P2;SDS_P1;SDS_P2;PMS_P1;PMS_P2;Temp;Humidity;BMP_temperature;BMP_pressure;BME280_temperature;BME280_humidity;BME280_pressure;Samples;Min_cycle;Max_cycle;Signal;HPM_P1;HPM_P2
2021/12/22 00:00:49;;;;;;;;;;;;;;;21.75;31.05;102126.81;7288523;19;151886;-49
2021/12/22 00:03:17;;;;;;;;;;;;;;;21.75;31.07;102129.63;7286847;19;153493;-50
2021/12/22 00:05:46;;;;;;;;;;;;;;;21.71;31.43;102120.06;7281493;19;152617;-50
2021/12/22 00:08:14;;;;;;;;;;;;;;;21.71;30.82;102120.06;7286776;19;151951;-50
2021/12/22 00:10:42;;;;;;;;;;;;;;;21.70;30.75;102119.22;7285151;19;152591;-49
2021/12/22 00:13:08;;;;;;;;;;;;;;;21.68;30.88;102112.19;7284017;19;153293;-50
2021/12/22 00:15:35;;;;;;;;;;;;;;;21.67;30.60;102116.13;7293635;19;152015;-50
2021/12/22 00:18:03;;;;;;;;;;;;;;;21.60;30.80;102118.41;7283805;19;154694;-49
2021/12/22 00:20:30;;;;;;;;;;;;;;;21.59;30.50;102126.00;7286617;19;152532;-50
2021/12/22 00:22:58;;;;;;;;;;;;;;;21.58;30.71;102120.66;7284706;19;153028;-50
2021/12/22 00:25:26;;;;;;;;;;;;;;;21.50;30.62;102110.00;7284837;19;154144;-51
2021/12/22 00:27:55;;;;;;;;;;;;;;;21.47;30.56;102116.22;7287266;19;151730;-50
2021/12/22 00:30:24;;;;;;;;;;;;;;;21.43;30.43;102113.16;7286922;19;151715;-50
2021/12/22 00:32:54;;;;;;;;;;;;;;;21.40;30.16;102113.69;7286439;19;153846;-50
2021/12/22 00:35:26;;;;;;;;;;;;;;;21.37;30.73;102110.63;7291500;19;152048;-50
2021/12/22 00:37:53;;;;;;;;;;;;;;;21.33;30.41;102107.53;7280790;19;153761;-50
2021/12/22 00:40:19;;;;;;;;;;;;;;;21.30;30.32;102097.69;7284746;19;151988;-50
2021/12/22 00:42:46;;;;;;;;;;;;;;;21.25;30.58;102094.09;7284692;19;152994;-50
2021/12/22 00:45:15;;;;;;;;;;;;;;;21.22;30.40;102101.09;7282922;19;153484;-50
2021/12/22 00:47:42;;;;;;;;;;;;;;;21.17;30.58;102106.72;7283308;19;152553;-51
2021/12/22 00:50:09;;;;;;;;;;;;;;;21.15;30.59;102105.34;7285562;19;152164;-50
2021/12/22 00:52:36;;;;;;;;;;;;;;;21.10;30.31;102099.69;7282831;19;154377;-50
2021/12/22 00:55:03;;;;;;;;;;;;;;;21.10;30.41;102094.06;7285631;19;151939;-50
2021/12/22 00:57:32;;;;;;;;;;;;;;;21.03;30.49;102097.16;7289289;19;153252;-50
2021/12/22 00:59:58;;;;;;;;;;;;;;;21.00;30.32;102092.13;7283862;19;151793;-50
2021/12/22 01:02:26;;;;;;;;;;;;;;;20.95;30.17;102091.28;7288076;19;153397;-50
2021/12/22 01:04:55;;;;;;;;;;;;;;;20.95;30.45;102085.66;7283510;19;152274;-50
2021/12/22 01:07:22;;;;;;;;;;;;;;;20.91;30.21;102081.75;7284919;19;152337;-50
2021/12/22 01:09:58;;;;;;;;;;;;;;;20.84;30.33;102082.91;7285392;19;153306;-50
2021/12/22 01:12:25;;;;;;;;;;;;;;;20.79;30.32;102084.88;7282670;19;153945;-50
2021/12/22 01:14:52;;;;;;;;;;;;;;;20.76;30.60;102088.22;7283030;19;152663;-50
2021/12/22 01:17:19;;;;;;;;;;;;;;;20.74;30.68;102079.25;7285923;19;153239;-49
2021/12/22 01:24:49;;;;;;;;;;;;;;;20.64;30.48;102090.47;7281862;19;153560;-50
2021/12/22 01:27:22;;;;;;;;;;;;;;;20.56;30.75;102086.28;7282739;19;152093;-49
2021/12/22 01:29:51;;;;;;;;;;;;;;;20.51;30.77;102077.84;7280533;19;152954;-50
2021/12/22 01:32:18;;;;;;;;;;;;;;;20.48;30.66;102088.81;7282556;19;154235;-50
2021/12/22 01:34:45;;;;;;;;;;;;;;;20.47;30.39;102082.34;7287670;19;152396;-49
2021/12/22 01:37:12;;;;;;;;;;;;;;;20.42;30.43;102073.94;7283117;19;153113;-50
2021/12/22 01:39:39;;;;;;;;;;;;;;;20.38;30.54;102064.38;7283558;19;152786;-50
2021/12/22 01:42:06;;;;;;;;;;;;;;;20.35;30.77;102073.38;7291955;19;152500;-50
2021/12/22 01:44:47;;;;;;;;;;;;;;;20.32;30.44;102073.91;7283245;19;153283;-51
2021/12/22 01:49:50;;;;;;;;;;;;;;;20.22;30.85;102065.44;7282888;19;152614;-50
2021/12/22 01:52:18;;;;;;;;;;;;;;;20.19;30.73;102061.25;7281853;19;154424;-50
2021/12/22 01:54:50;;;;;;;;;;;;;;;20.16;30.63;102069.38;7281208;19;152011;-50
2021/12/22 01:57:18;;;;;;;;;;;;;;;20.12;30.95;102071.06;7282466;19;153460;-50
2021/12/22 01:59:46;;;;;;;;;;;;;;;20.05;30.70;102079.75;7283307;19;152630;-50
2021/12/22 02:02:14;;;;;;;;;;;;;;;19.99;30.82;102067.66;7283368;19;152623;-50
2021/12/22 02:04:41;;;;;;;;;;;;;;;19.96;30.70;102062.63;7286807;19;152910;-50
2021/12/22 02:07:09;;;;;;;;;;;;;;;19.95;30.69;102051.66;7283503;19;151959;-50
2021/12/22 02:12:09;;;;;;;;;;;;;;;19.86;30.97;102054.16;7281898;19;153613;-50
2021/12/22 02:14:36;;;;;;;;;;;;;;;19.84;31.01;102053.63;7281159;19;152190;-50
2021/12/22 02:17:07;;;;;;;;;;;;;;;19.81;31.06;102056.97;7257769;19;153322;-50
2021/12/22 02:19:36;;;;;;;;;;;;;;;19.76;30.75;102056.94;7268534;19;154158;-49
2021/12/22 02:22:08;;;;;;;;;;;;;;;19.74;31.11;102053.59;7283048;19;152095;-50
2021/12/22 02:24:35;;;;;;;;;;;;;;;19.70;30.90;102052.47;7281114;19;153196;-49
2021/12/22 02:27:08;;;;;;;;;;;;;;;19.69;31.12;102047.13;7287353;19;152198;-49
2021/12/22 02:29:37;;;;;;;;;;;;;;;19.63;30.67;102053.81;7279302;19;153661;-50
2021/12/22 02:32:10;;;;;;;;;;;;;;;19.61;30.94;102050.47;7278046;19;152651;-49
2021/12/22 02:34:46;;;;;;;;;;;;;;;19.55;30.97;102046.78;7281542;19;151757;-50
2021/12/22 02:37:16;;;;;;;;;;;;;;;19.51;30.76;102043.72;7282625;19;151825;-50
2021/12/22 02:39:45;;;;;;;;;;;;;;;19.48;31.10;102040.63;7282551;19;153185;-50
2021/12/22 02:42:13;;;;;;;;;;;;;;;19.45;31.21;102042.00;7280412;19;152328;-50
2021/12/22 02:44:40;;;;;;;;;;;;;;;19.42;30.88;102033.25;7281567;19;152634;-49
2021/12/22 02:47:10;;;;;;;;;;;;;;;19.39;31.09;102042.22;7284772;19;153744;-49
2021/12/22 02:49:37;;;;;;;;;;;;;;;19.32;30.86;102036.88;7281858;19;152516;-50
2021/12/22 02:52:04;;;;;;;;;;;;;;;19.30;31.22;102038.28;7281184;19;153920;-49
2021/12/22 02:54:39;;;;;;;;;;;;;;;19.27;31.16;102041.59;7282256;19;152038;-50
2021/12/22 02:57:20;;;;;;;;;;;;;;;19.25;31.12;102038.25;7280692;19;153308;-50
2021/12/22 03:00:10;;;;;;;;;;;;;;;19.19;31.14;102034.56;7280933;19;153825;-50
2021/12/22 03:02:45;;;;;;;;;;;;;;;19.16;31.23;102037.94;7280537;19;152538;-50
2021/12/22 03:05:12;;;;;;;;;;;;;;;19.13;31.03;102027.25;7280830;19;152980;-49
2021/12/22 03:07:39;;;;;;;;;;;;;;;19.11;31.02;102032.28;7286911;19;154033;-49
2021/12/22 03:10:09;;;;;;;;;;;;;;;19.07;31.06;102020.81;7298296;19;152030;-50
2021/12/22 03:12:37;;;;;;;;;;;;;;;19.01;31.22;102023.84;7285374;19;153947;-50
2021/12/22 03:15:05;;;;;;;;;;;;;;;19.00;31.63;102030.53;7270901;19;154229;-50
2021/12/22 03:17:32;;;;;;;;;;;;;;;18.94;31.54;102020.44;7277921;19;152226;-50
2021/12/22 03:19:59;;;;;;;;;;;;;;;18.91;31.39;102021.81;7282672;19;154200;-51
2021/12/22 03:22:26;;;;;;;;;;;;;;;18.90;31.29;102022.91;7285079;19;152630;-50
2021/12/22 03:24:53;;;;;;;;;;;;;;;18.89;31.08;102029.66;7287494;19;153233;-50
2021/12/22 03:27:22;;;;;;;;;;;;;;;18.87;31.58;102029.06;7284209;19;153311;-50
2021/12/22 03:29:49;;;;;;;;;;;;;;;18.83;31.29;102030.72;7286565;19;152012;-50
2021/12/22 03:32:16;;;;;;;;;;;;;;;18.83;31.66;102029.88;7294359;19;152844;-50
2021/12/22 03:34:43;;;;;;;;;;;;;;;18.76;31.40;102021.72;7286404;19;152627;-50
2021/12/22 03:37:13;;;;;;;;;;;;;;;18.75;31.65;102017.25;7283363;19;152679;-50
2021/12/22 03:39:41;;;;;;;;;;;;;;;18.70;31.73;102002.38;7287119;19;152824;-51
2021/12/22 03:42:09;;;;;;;;;;;;;;;18.70;31.65;102005.16;7288675;19;152184;-50
2021/12/22 03:44:36;;;;;;;;;;;;;;;18.67;31.66;102006.53;7285599;19;152660;-50
2021/12/22 03:47:03;;;;;;;;;;;;;;;18.64;31.53;102012.69;7283920;19;153785;-51
2021/12/22 03:49:30;;;;;;;;;;;;;;;18.63;31.41;102013.78;7287190;19;152474;-50
2021/12/22 03:51:57;;;;;;;;;;;;;;;18.58;31.50;102009.00;7287687;19;153279;-50
2021/12/22 03:54:24;;;;;;;;;;;;;;;18.51;31.57;102008.38;7289937;19;153962;-50
2021/12/22 03:56:51;;;;;;;;;;;;;;;18.48;32.20;102008.91;7285479;19;153402;-50
2021/12/22 03:59:18;;;;;;;;;;;;;;;18.48;31.93;102002.47;7282823;19;153263;-50
2021/12/22 04:01:46;;;;;;;;;;;;;;;18.47;31.86;102001.63;7284237;19;152148;-50
2021/12/22 04:04:16;;;;;;;;;;;;;;;18.46;32.38;101997.13;7283814;19;153474;-50
2021/12/22 04:06:45;;;;;;;;;;;;;;;18.43;32.11;101988.44;7287173;19;154016;-50
2021/12/22 04:09:13;;;;;;;;;;;;;;;18.40;32.23;101987.00;7288384;19;152281;-50
2021/12/22 04:11:40;;;;;;;;;;;;;;;18.41;32.76;101985.06;7285549;19;152309;-50
2021/12/22 04:14:07;;;;;;;;;;;;;;;18.46;32.93;101979.50;7286238;19;153749;-50
2021/12/22 04:16:35;;;;;;;;;;;;;;;18.50;33.02;101980.66;7259998;19;154468;-50
2021/12/22 04:19:03;;;;;;;;;;;;;;;18.55;33.01;101977.91;7278874;19;152641;-49
2021/12/22 04:21:30;;;;;;;;;;;;;;;18.59;33.46;101979.91;7275662;19;153268;-49
2021/12/22 04:23:57;;;;;;;;;;;;;;;18.65;33.35;101980.78;7285317;19;153101;-50
2021/12/22 04:26:26;;;;;;;;;;;;;;;18.71;33.69;101979.72;7284465;19;153343;-49
2021/12/22 04:28:53;;;;;;;;;;;;;;;18.80;33.73;101971.66;7284407;19;152633;-50
2021/12/22 04:31:21;;;;;;;;;;;;;;;18.88;33.78;101973.91;7283858;19;151754;-50
2021/12/22 04:33:48;;;;;;;;;;;;;;;18.95;34.29;101982.91;7282744;19;153997;-50
2021/12/22 04:36:15;;;;;;;;;;;;;;;19.04;34.04;101973.72;7283537;19;151987;-50
2021/12/22 04:38:42;;;;;;;;;;;;;;;19.12;33.97;101968.72;7287683;19;153060;-50
2021/12/22 04:41:09;;;;;;;;;;;;;;;19.22;34.35;101966.78;7285109;19;152382;-50
2021/12/22 04:43:36;;;;;;;;;;;;;;;19.25;34.12;101951.38;7286081;19;151953;-49
2021/12/22 04:46:03;;;;;;;;;;;;;;;19.33;33.92;101948.88;7285423;19;153232;-49
2021/12/22 04:48:31;;;;;;;;;;;;;;;19.38;33.71;101954.50;7282022;19;152149;-50
2021/12/22 04:50:58;;;;;;;;;;;;;;;19.45;33.71;101952.31;7284505;19;153698;-50
2021/12/22 04:53:28;;;;;;;;;;;;;;;19.52;33.58;101943.66;7284311;19;153362;-50
2021/12/22 04:55:56;;;;;;;;;;;;;;;19.60;33.83;101948.69;7284419;19;152095;-50
2021/12/22 04:58:23;;;;;;;;;;;;;;;19.68;33.75;101950.94;7286955;19;153662;-50
2021/12/22 05:00:50;;;;;;;;;;;;;;;19.75;34.20;101945.06;7283385;19;151944;-50
2021/12/22 05:03:17;;;;;;;;;;;;;;;19.82;33.85;101948.44;7283457;19;153176;-50
2021/12/22 05:05:44;;;;;;;;;;;;;;;19.88;34.13;101955.75;7280227;19;154439;-50
2021/12/22 05:08:11;;;;;;;;;;;;;;;19.94;33.93;101952.66;7282550;19;151917;-50
2021/12/22 05:10:38;;;;;;;;;;;;;;;20.02;33.80;101950.41;7283400;19;153143;-50
2021/12/22 05:13:05;;;;;;;;;;;;;;;20.08;34.22;101952.94;7283238;19;153908;-50
2021/12/22 05:15:38;;;;;;;;;;;;;;;20.14;34.00;101945.34;7264216;19;155044;-50
2021/12/22 05:20:36;;;;;;;;;;;;;;;20.26;33.77;101943.13;7286403;19;153376;-51
2021/12/22 05:23:03;;;;;;;;;;;;;;;20.32;33.89;101944.81;7279000;19;153510;-50
2021/12/22 05:25:30;;;;;;;;;;;;;;;20.37;34.17;101939.19;7281538;19;152599;-49
2021/12/22 05:27:57;;;;;;;;;;;;;;;20.42;34.02;101940.03;7279116;19;152596;-49
2021/12/22 05:30:24;;;;;;;;;;;;;;;20.48;33.79;101937.22;7282611;19;153370;-50
2021/12/22 05:32:54;;;;;;;;;;;;;;;20.54;34.34;101930.44;7282500;19;154226;-50
2021/12/22 05:35:22;;;;;;;;;;;;;;;20.59;33.88;101939.69;7281432;19;152251;-49
2021/12/22 05:37:49;;;;;;;;;;;;;;;20.65;33.84;101930.16;7279936;19;152720;-50
2021/12/22 05:40:17;;;;;;;;;;;;;;;20.68;33.76;101932.38;7281499;19;154248;-50
2021/12/22 05:42:43;;;;;;;;;;;;;;;20.73;33.96;101934.31;7290297;19;151988;-49
2021/12/22 05:45:10;;;;;;;;;;;;;;;20.77;33.92;101935.44;7280300;19;152911;-49
2021/12/22 05:47:37;;;;;;;;;;;;;;;20.82;34.12;101939.06;7279740;19;152225;-50
2021/12/22 05:50:06;;;;;;;;;;;;;;;20.88;34.25;101939.06;7280938;19;153832;-50
2021/12/22 05:52:34;;;;;;;;;;;;;;;20.92;34.33;101941.00;7282316;19;153348;-50
2021/12/22 05:55:01;;;;;;;;;;;;;;;20.96;34.17;101944.91;7281079;19;152335;-50
2021/12/22 05:57:28;;;;;;;;;;;;;;;21.02;34.21;101945.75;7280022;19;152057;-50
2021/12/22 05:59:54;;;;;;;;;;;;;;;21.07;34.27;101937.28;7279019;19;153592;-50
2021/12/22 06:02:21;;;;;;;;;;;;;;;21.10;33.89;101939.53;7282563;19;152689;-50
2021/12/22 06:04:48;;;;;;;;;;;;;;;21.13;34.27;101931.38;7287625;19;153251;-50
2021/12/22 06:07:15;;;;;;;;;;;;;;;21.18;33.84;101936.13;7282648;19;152546;-50
2021/12/22 06:09:42;;;;;;;;;;;;;;;21.22;34.23;101934.41;7280236;19;153394;-50
2021/12/22 06:12:09;;;;;;;;;;;;;;;21.25;34.09;101931.06;7278832;19;153341;-50
2021/12/22 06:14:36;;;;;;;;;;;;;;;21.29;34.33;101923.72;7278223;19;153255;-51
2021/12/22 06:17:03;;;;;;;;;;;;;;;21.33;34.15;101921.16;7251701;19;154582;-51
2021/12/22 06:19:30;;;;;;;;;;;;;;;21.37;34.37;101919.44;7278324;19;154200;-50
2021/12/22 06:21:57;;;;;;;;;;;;;;;21.40;34.20;101914.06;7277020;19;152195;-51
2021/12/22 06:24:24;;;;;;;;;;;;;;;21.43;34.14;101905.06;7276289;19;152562;-50
2021/12/22 06:26:51;;;;;;;;;;;;;;;21.48;34.39;101907.84;7287719;19;152270;-50
2021/12/22 06:29:18;;;;;;;;;;;;;;;21.52;34.03;101899.66;7283909;19;152468;-50
2021/12/22 06:31:45;;;;;;;;;;;;;;;21.55;34.15;101902.72;7275993;19;152721;-50
2021/12/22 06:34:12;;;;;;;;;;;;;;;21.60;34.14;101904.66;7281008;19;154112;-50
2021/12/22 06:36:39;;;;;;;;;;;;;;;21.62;34.05;101897.59;7281316;19;153262;-50
2021/12/22 06:39:07;;;;;;;;;;;;;;;21.66;34.23;101898.72;7277903;19;153850;-49
2021/12/22 06:41:34;;;;;;;;;;;;;;;21.69;33.78;101895.31;7285669;19;152309;-50
2021/12/22 06:44:01;;;;;;;;;;;;;;;21.71;33.88;101895.84;7290824;19;153303;-50
2021/12/22 06:46:28;;;;;;;;;;;;;;;21.74;34.04;101900.91;7287792;19;154043;-50
2021/12/22 06:48:55;;;;;;;;;;;;;;;21.79;34.16;101890.75;7294214;19;152257;-49
2021/12/22 06:51:22;;;;;;;;;;;;;;;21.82;33.94;101898.59;7288038;19;153229;-49
2021/12/22 06:53:49;;;;;;;;;;;;;;;21.85;33.99;101898.81;7285144;19;152357;-50
2021/12/22 06:56:16;;;;;;;;;;;;;;;21.87;34.17;101904.16;7287885;19;152875;-50
2021/12/22 06:58:43;;;;;;;;;;;;;;;21.90;34.01;101906.38;7284911;19;152278;-50
2021/12/22 07:01:16;;;;;;;;;;;;;;;21.93;33.98;101909.50;7287679;19;152112;-51
2021/12/22 07:03:47;;;;;;;;;;;;;;;21.95;34.00;101900.75;7287780;19;153913;-49
2021/12/22 07:06:14;;;;;;;;;;;;;;;21.96;33.71;101889.22;7283770;19;152658;-50
2021/12/22 07:08:41;;;;;;;;;;;;;;;22.00;33.88;101890.28;7294178;19;152163;-50
2021/12/22 07:11:09;;;;;;;;;;;;;;;22.02;34.17;101885.22;7284309;19;153615;-49
2021/12/22 07:13:36;;;;;;;;;;;;;;;22.05;34.22;101884.63;7286906;19;152437;-50
2021/12/22 07:16:03;;;;;;;;;;;;;;;22.08;33.72;101877.53;7284346;19;152405;-50
2021/12/22 07:18:32;;;;;;;;;;;;;;;22.11;33.98;101871.34;7283381;19;154356;-49
2021/12/22 07:20:59;;;;;;;;;;;;;;;22.13;33.73;101869.06;7285957;19;152707;-50
2021/12/22 07:23:26;;;;;;;;;;;;;;;22.15;33.74;101878.06;7287037;19;152005;-50
2021/12/22 07:25:53;;;;;;;;;;;;;;;22.18;33.99;101878.28;7282667;19;153801;-50
2021/12/22 07:28:20;;;;;;;;;;;;;;;22.22;34.03;101883.31;7282270;19;152129;-49
2021/12/22 07:30:47;;;;;;;;;;;;;;;22.24;33.84;101887.53;7292987;19;152647;-50
2021/12/22 07:33:14;;;;;;;;;;;;;;;22.26;33.94;101885.25;7284002;19;152208;-49
2021/12/22 07:35:43;;;;;;;;;;;;;;;22.28;34.10;101885.81;7286582;19;152687;-49
2021/12/22 07:38:13;;;;;;;;;;;;;;;22.31;34.04;101892.81;7286232;19;154359;-50
2021/12/22 07:40:40;;;;;;;;;;;;;;;22.33;33.94;101894.19;7286418;19;151918;-50
2021/12/22 07:43:07;;;;;;;;;;;;;;;22.35;33.93;101897.53;7286783;19;152342;-50
2021/12/22 07:45:34;;;;;;;;;;;;;;;22.38;33.72;101893.31;7282580;19;154282;-50
2021/12/22 07:48:01;;;;;;;;;;;;;;;22.39;33.67;101889.34;7287016;19;152272;-50
2021/12/22 07:50:28;;;;;;;;;;;;;;;22.42;33.54;101880.31;7285525;19;154705;-50
2021/12/22 07:52:55;;;;;;;;;;;;;;;22.43;33.62;101882.81;7291136;19;154503;-49
2021/12/22 07:55:22;;;;;;;;;;;;;;;22.45;33.83;101888.97;7289209;19;153689;-50
2021/12/22 07:57:49;;;;;;;;;;;;;;;22.47;33.63;101883.91;7283757;19;153539;-50
2021/12/22 08:00:16;;;;;;;;;;;;;;;22.50;33.78;101886.13;7283883;19;151960;-50
2021/12/22 08:02:43;;;;;;;;;;;;;;;22.52;33.65;101888.66;7286677;19;153489;-50
2021/12/22 08:05:30;;;;;;;;;;;;;;;22.53;33.98;101879.88;7280386;19;156016;-49
2021/12/22 08:07:59;;;;;;;;;;;;;;;22.56;33.54;101886.91;7283437;19;152079;-50
2021/12/22 08:10:26;;;;;;;;;;;;;;;22.55;33.50;101880.44;7283846;19;153392;-50
2021/12/22 08:12:53;;;;;;;;;;;;;;;22.56;33.59;101879.28;7283514;19;153371;-50
2021/12/22 08:15:20;;;;;;;;;;;;;;;22.54;33.67;101866.63;7290652;19;152007;-50
2021/12/22 08:17:47;;;;;;;;;;;;;;;22.55;33.93;101866.34;7283752;19;152607;-50
2021/12/22 08:20:14;;;;;;;;;;;;;;;22.55;33.60;101871.97;7283021;19;152524;-50
2021/12/22 08:22:41;;;;;;;;;;;;;;;22.54;33.63;101863.81;7285005;19;152731;-50
2021/12/22 08:25:09;;;;;;;;;;;;;;;22.54;33.43;101858.19;7282162;19;154021;-50
2021/12/22 08:27:36;;;;;;;;;;;;;;;22.52;33.61;101864.13;7286532;19;152357;-50
2021/12/22 08:30:05;;;;;;;;;;;;;;;22.50;33.73;101869.22;7282792;19;153551;-50
2021/12/22 08:32:32;;;;;;;;;;;;;;;22.48;33.44;101874.31;7283564;19;154074;-50
2021/12/22 08:34:59;;;;;;;;;;;;;;;22.47;33.46;101883.06;7284268;19;152098;-50
2021/12/22 08:39:57;;;;;;;;;;;;;;;22.43;33.63;101888.47;7283684;19;152192;-50
2021/12/22 08:42:24;;;;;;;;;;;;;;;22.40;33.64;101871.31;7284803;19;153386;-49
2021/12/22 08:44:52;;;;;;;;;;;;;;;22.40;33.44;101871.31;7283104;19;153545;-50
2021/12/22 08:47:20;;;;;;;;;;;;;;;22.36;33.60;101871.06;7284751;19;151939;-50
2021/12/22 08:49:47;;;;;;;;;;;;;;;22.35;33.47;101869.38;7287133;19;153366;-49
2021/12/22 08:52:15;;;;;;;;;;;;;;;22.35;33.66;101877.81;7283579;19;153837;-50
2021/12/22 08:54:44;;;;;;;;;;;;;;;22.30;33.49;101869.47;7282048;19;152673;-49
2021/12/22 08:57:11;;;;;;;;;;;;;;;22.29;33.98;101872.56;7282049;19;152927;-50
2021/12/22 08:59:39;;;;;;;;;;;;;;;22.25;33.67;101871.47;7290188;19;152762;-49
2021/12/22 09:02:06;;;;;;;;;;;;;;;22.21;33.87;101867.59;7282856;19;153081;-51
2021/12/22 09:04:33;;;;;;;;;;;;;;;22.16;34.15;101880.59;7276786;19;153124;-50
2021/12/22 09:07:00;;;;;;;;;;;;;;;22.13;34.17;101880.31;7283136;19;152478;-50
2021/12/22 09:09:27;;;;;;;;;;;;;;;22.09;33.91;101884.88;7284783;19;152694;-50
2021/12/22 09:11:54;;;;;;;;;;;;;;;22.08;33.82;101888.81;7281694;19;153246;-51
2021/12/22 09:14:22;;;;;;;;;;;;;;;22.03;34.03;101886.88;7282362;19;151984;-51
2021/12/22 09:16:49;;;;;;;;;;;;;;;22.01;33.88;101896.75;7283042;19;152731;-50
2021/12/22 09:19:16;;;;;;;;;;;;;;;22.00;34.19;101892.25;7288066;19;153787;-50
2021/12/22 09:21:43;;;;;;;;;;;;;;;21.96;34.49;101894.00;7283952;19;153383;-50
2021/12/22 09:24:11;;;;;;;;;;;;;;;21.93;34.35;101892.63;7281661;19;153552;-51
2021/12/22 09:26:38;;;;;;;;;;;;;;;21.91;34.20;101889.22;7280926;19;152219;-50
2021/12/22 09:29:05;;;;;;;;;;;;;;;21.85;34.44;101893.19;7287392;19;153228;-50
2021/12/22 09:31:32;;;;;;;;;;;;;;;21.85;34.69;101893.19;7282090;19;152362;-50
2021/12/22 09:33:59;;;;;;;;;;;;;;;21.81;34.61;101899.72;7283098;19;151834;-50
2021/12/22 09:36:26;;;;;;;;;;;;;;;21.77;34.72;101893.84;7281757;19;153786;-50
2021/12/22 09:38:54;;;;;;;;;;;;;;;21.70;34.90;101905.44;7277994;19;153751;-50
2021/12/22 09:41:21;;;;;;;;;;;;;;;21.66;34.76;101912.78;7289020;19;151915;-49
2021/12/22 09:43:50;;;;;;;;;;;;;;;21.63;34.90;101899.28;7282978;19;154341;-50
2021/12/22 09:46:21;;;;;;;;;;;;;;;21.56;35.20;101897.97;7282473;19;152360;-49
2021/12/22 09:48:51;;;;;;;;;;;;;;;21.48;34.97;101890.16;7283666;19;152708;-50
2021/12/22 09:53:51;;;;;;;;;;;;;;;21.38;34.98;101895.84;7281227;19;152231;-50
2021/12/22 09:56:21;;;;;;;;;;;;;;;21.32;35.23;101886.59;7282464;19;153331;-50
2021/12/22 09:58:49;;;;;;;;;;;;;;;21.28;35.12;101885.50;7279222;19;154017;-50
2021/12/22 10:01:22;;;;;;;;;;;;;;;21.23;35.49;101874.28;7280791;19;152184;-50
2021/12/22 10:03:51;;;;;;;;;;;;;;;21.20;35.67;101872.91;7289115;19;152857;-50
2021/12/22 10:06:18;;;;;;;;;;;;;;;21.15;35.45;101872.09;7277988;19;152531;-51
2021/12/22 10:08:48;;;;;;;;;;;;;;;21.11;35.74;101868.97;7283211;19;152841;-50
2021/12/22 10:11:15;;;;;;;;;;;;;;;21.07;35.61;101850.19;7282090;19;153593;-51
2021/12/22 10:13:44;;;;;;;;;;;;;;;21.03;35.57;101846.28;7282783;19;153445;-51
2021/12/22 10:16:14;;;;;;;;;;;;;;;20.99;35.84;101839.53;7277753;19;153796;-51
2021/12/22 10:18:41;;;;;;;;;;;;;;;20.94;35.77;101834.78;7283257;19;153760;-51
2021/12/22 10:21:11;;;;;;;;;;;;;;;20.91;36.04;101835.38;7278414;19;152012;-50
2021/12/22 10:23:41;;;;;;;;;;;;;;;20.89;35.90;101834.00;7280151;19;152463;-51
2021/12/22 10:26:09;;;;;;;;;;;;;;;20.85;36.14;101816.84;7288930;19;154855;-51
2021/12/22 10:28:39;;;;;;;;;;;;;;;20.84;36.28;101813.22;7280845;19;153166;-50
2021/12/22 10:31:06;;;;;;;;;;;;;;;20.80;36.13;101809.28;7281475;19;154234;-52
2021/12/22 10:33:33;;;;;;;;;;;;;;;20.77;36.28;101801.47;7281556;19;152063;-48
2021/12/22 10:36:03;;;;;;;;;;;;;;;20.73;36.33;101811.59;7280604;19;152678;-48
2021/12/22 10:38:31;;;;;;;;;;;;;;;20.69;36.48;101807.69;7278155;19;154327;-49
2021/12/22 10:41:01;;;;;;;;;;;;;;;20.72;36.39;101801.47;7275033;19;153015;-48
2021/12/22 10:43:29;;;;;;;;;;;;;;;20.62;35.57;101806.34;7282010;19;153497;-49
2021/12/22 10:45:59;;;;;;;;;;;;;;;20.61;35.86;101794.25;7281166;19;153808;-48
2021/12/22 10:50:59;;;;;;;;;;;;;;;20.63;35.30;101783.56;7280698;19;153359;-48
2021/12/22 10:53:27;;;;;;;;;;;;;;;20.62;35.13;101770.69;7281488;19;151899;-48
2021/12/22 10:55:55;;;;;;;;;;;;;;;20.62;35.47;101761.41;7280310;19;153304;-48
2021/12/22 10:58:24;;;;;;;;;;;;;;;20.62;35.11;101751.03;7279713;19;153382;-49
2021/12/22 11:00:54;;;;;;;;;;;;;;;20.61;34.85;101746.53;7279304;19;153521;-48
2021/12/22 11:03:20;;;;;;;;;;;;;;;20.63;34.82;101749.03;7280170;19;152420;-49
2021/12/22 11:05:48;;;;;;;;;;;;;;;20.66;34.79;101748.47;7279689;19;153905;-48
2021/12/22 11:08:18;;;;;;;;;;;;;;;20.69;34.90;101747.88;7288385;19;151786;-49
2021/12/22 11:10:46;;;;;;;;;;;;;;;20.71;34.61;101745.63;7277338;19;154082;-49
2021/12/22 11:13:17;;;;;;;;;;;;;;;20.73;34.88;101738.56;7280384;19;151969;-48
2021/12/22 11:15:44;;;;;;;;;;;;;;;20.76;34.77;101729.56;7280048;19;152761;-49
2021/12/22 11:18:14;;;;;;;;;;;;;;;20.78;34.50;101730.13;7276703;19;155744;-49
2021/12/22 11:20:46;;;;;;;;;;;;;;;20.81;34.36;101723.91;7277980;19;152260;-48
2021/12/22 11:23:13;;;;;;;;;;;;;;;20.85;34.60;101721.34;7281239;19;151833;-49
2021/12/22 11:25:41;;;;;;;;;;;;;;;20.86;34.72;101715.44;7276678;19;154013;-49
2021/12/22 11:28:08;;;;;;;;;;;;;;;20.90;34.28;101704.47;7284229;19;153175;-48
2021/12/22 11:30:35;;;;;;;;;;;;;;;20.93;34.54;101695.47;7292938;19;153059;-49
2021/12/22 11:33:03;;;;;;;;;;;;;;;20.93;34.38;101692.66;7285859;19;151856;-48
2021/12/22 11:35:31;;;;;;;;;;;;;;;20.97;34.12;101688.13;7285905;19;152923;-49
2021/12/22 11:37:58;;;;;;;;;;;;;;;21.00;34.47;101690.34;7287444;19;153860;-49
2021/12/22 11:40:26;;;;;;;;;;;;;;;21.04;34.17;101687.78;7285774;19;151908;-49
2021/12/22 11:42:53;;;;;;;;;;;;;;;21.04;34.14;101679.34;7285167;19;153186;-48
2021/12/22 11:45:21;;;;;;;;;;;;;;;21.06;34.20;101682.72;7285119;19;154230;-49
2021/12/22 11:47:50;;;;;;;;;;;;;;;21.07;33.92;101676.81;7285471;19;152160;-49
2021/12/22 11:50:20;;;;;;;;;;;;;;;21.10;34.23;101666.94;7282946;19;153523;-49
2021/12/22 11:52:50;;;;;;;;;;;;;;;21.08;34.30;101663.56;7293454;19;153815;-49
2021/12/22 11:55:19;;;;;;;;;;;;;;;21.10;33.86;101662.16;7287511;19;152961;-48
2021/12/22 11:57:47;;;;;;;;;;;;;;;21.08;34.09;101660.75;7282785;19;154222;-49
2021/12/22 12:00:17;;;;;;;;;;;;;;;21.09;33.96;101663.28;7284866;19;151869;-49
2021/12/22 12:02:44;;;;;;;;;;;;;;;21.07;33.73;101654.34;7282635;19;153802;-49
2021/12/22 12:05:15;;;;;;;;;;;;;;;21.07;33.85;101656.31;7283617;19;154126;-49
2021/12/22 12:07:43;;;;;;;;;;;;;;;21.03;33.69;101647.59;7284342;19;151960;-48
2021/12/22 12:10:13;;;;;;;;;;;;;;;21.04;33.58;101640.00;7286079;19;152119;-49
2021/12/22 12:12:46;;;;;;;;;;;;;;;21.05;33.89;101636.06;7284296;19;154258;-49
2021/12/22 12:15:25;;;;;;;;;;;;;;;21.03;33.53;101622.31;7294021;19;152585;-48
2021/12/22 12:23:13;;;;;;;;;;;;;;;21.07;34.16;101608.53;7284725;19;152793;-48
2021/12/22 12:25:40;;;;;;;;;;;;;;;21.09;34.02;101601.47;7280702;19;152610;-49
2021/12/22 12:28:10;;;;;;;;;;;;;;;21.12;33.85;101602.88;7285543;19;151564;-48
2021/12/22 12:30:42;;;;;;;;;;;;;;;21.13;33.91;101607.38;7284388;19;152729;-48
2021/12/22 12:33:11;;;;;;;;;;;;;;;21.15;33.78;101589.09;7284579;19;153500;-48
2021/12/22 12:35:47;;;;;;;;;;;;;;;21.18;33.84;101585.69;7285408;19;152162;-48
2021/12/22 12:38:16;;;;;;;;;;;;;;;21.20;34.10;101577.78;7289806;19;154182;-48
2021/12/22 12:40:46;;;;;;;;;;;;;;;21.21;33.93;101582.25;7282210;19;152149;-50
2021/12/22 12:43:13;;;;;;;;;;;;;;;21.25;33.84;101562.84;7284748;19;153408;-49
2021/12/22 12:45:41;;;;;;;;;;;;;;;21.26;33.88;101567.31;7284305;19;153729;-48
2021/12/22 12:48:11;;;;;;;;;;;;;;;21.30;33.67;101560.00;7282941;19;152861;-50
2021/12/22 12:50:39;;;;;;;;;;;;;;;21.32;33.98;101557.69;7285377;19;152968;-49
2021/12/22 12:53:06;;;;;;;;;;;;;;;21.33;33.54;101548.13;7284156;19;153869;-49
2021/12/22 12:55:33;;;;;;;;;;;;;;;21.36;33.74;101553.16;7287010;19;152157;-49
2021/12/22 12:58:20;;;;;;;;;;;;;;;21.39;33.70;101543.28;7287835;19;152585;-49